createdAt,value
2022-08-28T00:02:06.203Z,16.80
2022-08-28T00:04:33.573Z,16.80
2022-08-28T00:07:01.702Z,16.80
2022-08-28T00:09:28.964Z,16.80
2022-08-28T00:11:56.708Z,16.80
2022-08-28T00:14:24.102Z,16.90
2022-08-28T00:16:51.383Z,16.80
2022-08-28T00:19:19.148Z,16.80
2022-08-28T00:21:46.526Z,16.80
2022-08-28T00:24:13.944Z,16.90
2022-08-28T00:26:59.704Z,16.90
2022-08-28T00:29:27.095Z,16.90
2022-08-28T00:31:55.360Z,17.10
2022-08-28T00:34:32.998Z,17.10
2022-08-28T00:37:01.162Z,17.20
2022-08-28T00:39:28.501Z,17.30
2022-08-28T00:41:58.049Z,17.30
2022-08-28T00:44:26.170Z,17.40
2022-08-28T00:46:54.646Z,17.40
2022-08-28T00:49:24.461Z,17.30
2022-08-28T00:52:12.490Z,17.30
2022-08-28T00:54:56.898Z,17.20
2022-08-28T00:57:49.249Z,17.10
2022-08-28T01:00:29.576Z,17.10
2022-08-28T01:02:58.185Z,17.10
2022-08-28T01:05:25.912Z,17.00
2022-08-28T01:07:53.162Z,17.10
2022-08-28T01:10:22.619Z,17.10
2022-08-28T01:12:54.431Z,17.00
2022-08-28T01:15:24.463Z,17.00
2022-08-28T01:17:56.420Z,17.00
2022-08-28T01:20:27.520Z,17.00
2022-08-28T01:23:14.069Z,17.10
2022-08-28T01:25:41.394Z,17.20
2022-08-28T01:28:12.252Z,17.20
2022-08-28T01:30:44.907Z,17.30
2022-08-28T01:33:12.322Z,17.20
2022-08-28T01:35:40.853Z,17.10
2022-08-28T01:38:08.138Z,17.10
2022-08-28T01:40:38.408Z,17.20
2022-08-28T01:43:13.839Z,17.30
2022-08-28T01:45:42.380Z,17.30
2022-08-28T01:48:09.899Z,17.30
2022-08-28T01:50:37.531Z,17.30
2022-08-28T01:53:05.579Z,17.40
2022-08-28T01:55:35.207Z,17.40
2022-08-28T01:58:03.291Z,17.50
2022-08-28T02:00:30.577Z,17.40
2022-08-28T02:02:58.431Z,17.40
2022-08-28T02:05:27.328Z,17.30
2022-08-28T02:07:57.136Z,17.30
2022-08-28T02:10:25.786Z,17.20
2022-08-28T02:12:55.405Z,17.30
2022-08-28T02:15:26.979Z,17.20
2022-08-28T02:17:54.335Z,17.20
2022-08-28T02:20:22.386Z,17.20
2022-08-28T02:22:49.622Z,17.30
2022-08-28T02:25:16.934Z,17.30
2022-08-28T02:27:44.259Z,17.30
2022-08-28T02:30:12.703Z,17.20
2022-08-28T02:32:39.973Z,17.20
2022-08-28T02:35:10.958Z,17.10
2022-08-28T02:37:40.039Z,17.10
2022-08-28T02:40:08.321Z,17.10
2022-08-28T02:42:35.592Z,17.10
2022-08-28T02:45:02.934Z,17.20
2022-08-28T02:47:30.199Z,17.30
2022-08-28T02:49:57.470Z,17.20
2022-08-28T02:52:24.707Z,17.20
2022-08-28T02:54:51.938Z,17.10
2022-08-28T02:57:19.188Z,17.00
2022-08-28T02:59:47.776Z,17.00
2022-08-28T03:02:15.071Z,17.00
2022-08-28T03:04:43.039Z,17.00
2022-08-28T03:07:13.513Z,17.00
2022-08-28T03:09:44.179Z,17.00
2022-08-28T03:12:13.193Z,17.00
2022-08-28T03:14:40.535Z,17.10
2022-08-28T03:17:07.759Z,17.10
2022-08-28T03:19:35.072Z,17.10
2022-08-28T03:22:02.296Z,17.10
2022-08-28T03:24:29.628Z,17.10
2022-08-28T03:26:56.888Z,17.20
2022-08-28T03:29:24.112Z,17.30
2022-08-28T03:31:51.351Z,17.30
2022-08-28T03:34:18.606Z,17.20
2022-08-28T03:36:45.830Z,17.20
2022-08-28T03:39:13.827Z,17.20
2022-08-28T03:41:41.072Z,17.20
2022-08-28T03:44:08.375Z,17.10
2022-08-28T03:46:35.641Z,17.10
2022-08-28T03:49:04.048Z,17.10
2022-08-28T03:51:32.689Z,17.20
2022-08-28T03:54:00.130Z,17.20
2022-08-28T03:56:28.226Z,17.30
2022-08-28T03:58:57.429Z,17.30
2022-08-28T04:01:24.899Z,17.30
2022-08-28T04:03:52.253Z,17.20
2022-08-28T04:06:19.794Z,17.20
2022-08-28T04:08:47.782Z,17.20
2022-08-28T04:11:15.119Z,17.20
2022-08-28T04:13:42.411Z,17.20
2022-08-28T04:16:11.541Z,17.10
2022-08-28T04:18:40.386Z,17.10
2022-08-28T04:21:18.396Z,17.10
2022-08-28T04:23:49.720Z,17.10
2022-08-28T04:26:19.073Z,17.10
2022-08-28T04:28:46.708Z,17.10
2022-08-28T04:31:14.885Z,17.20
2022-08-28T04:33:42.210Z,17.20
2022-08-28T04:36:16.679Z,17.20
2022-08-28T04:38:44.290Z,17.20
2022-08-28T04:41:13.338Z,17.20
2022-08-28T04:43:40.583Z,17.20
2022-08-28T04:46:10.047Z,17.20
2022-08-28T04:48:37.915Z,17.10
2022-08-28T04:51:06.097Z,17.10
2022-08-28T04:53:33.326Z,17.20
2022-08-28T04:56:02.434Z,17.20
2022-08-28T04:58:30.491Z,17.10
2022-08-28T05:00:57.852Z,17.10
2022-08-28T05:03:25.164Z,17.20
2022-08-28T05:05:53.400Z,17.20
2022-08-28T05:08:22.914Z,17.30
2022-08-28T05:10:50.805Z,17.30
2022-08-28T05:13:20.998Z,17.30
2022-08-28T05:15:49.623Z,17.30
2022-08-28T05:18:17.957Z,17.30
2022-08-28T05:20:46.347Z,17.30
2022-08-28T05:23:14.440Z,17.30
2022-08-28T05:25:47.587Z,17.20
2022-08-28T05:28:16.776Z,17.20
2022-08-28T05:30:44.239Z,17.20
2022-08-28T05:33:13.157Z,17.30
2022-08-28T05:35:42.294Z,17.30
2022-08-28T05:38:10.168Z,17.40
2022-08-28T05:40:42.807Z,17.50
2022-08-28T05:43:11.084Z,17.50
2022-08-28T05:45:38.337Z,17.50
2022-08-28T05:48:05.700Z,17.60
2022-08-28T05:50:33.523Z,17.60
2022-08-28T05:53:01.401Z,17.50
2022-08-28T05:55:28.823Z,17.60
2022-08-28T05:58:16.008Z,17.60
2022-08-28T06:00:43.240Z,17.70
2022-08-28T06:03:10.459Z,17.70
2022-08-28T06:05:38.482Z,17.70
2022-08-28T06:08:05.762Z,17.70
2022-08-28T06:10:33.094Z,17.70
2022-08-28T06:13:02.392Z,17.70
2022-08-28T06:15:30.173Z,17.60
2022-08-28T06:17:57.391Z,17.60
2022-08-28T06:20:25.819Z,17.70
2022-08-28T06:22:53.039Z,17.70
2022-08-28T06:25:20.316Z,17.70
2022-08-28T06:27:47.534Z,17.60
2022-08-28T06:30:14.789Z,17.60
2022-08-28T06:32:42.106Z,17.60
2022-08-28T06:35:09.432Z,17.60
2022-08-28T06:37:37.835Z,17.60
2022-08-28T06:40:05.658Z,17.70
2022-08-28T06:42:33.334Z,17.80
2022-08-28T06:45:00.550Z,17.80
2022-08-28T06:47:27.774Z,17.80
2022-08-28T06:49:55.017Z,17.90
2022-08-28T06:52:22.260Z,18.00
2022-08-28T06:54:55.890Z,18.00
2022-08-28T06:57:23.800Z,18.20
2022-08-28T06:59:51.040Z,18.30
2022-08-28T07:02:18.824Z,18.30
2022-08-28T07:04:50.415Z,18.40
2022-08-28T07:07:31.356Z,18.30
2022-08-28T07:09:59.195Z,18.40
2022-08-28T07:12:26.421Z,18.40
2022-08-28T07:14:53.639Z,18.40
2022-08-28T07:17:21.128Z,18.40
2022-08-28T07:19:48.427Z,18.50
2022-08-28T07:22:15.695Z,18.60
2022-08-28T07:24:42.915Z,18.70
2022-08-28T07:27:10.248Z,18.60
2022-08-28T07:29:42.991Z,18.50
2022-08-28T07:32:10.239Z,18.50
2022-08-28T07:34:38.961Z,18.50
2022-08-28T07:37:11.078Z,18.40
2022-08-28T07:39:40.592Z,18.40
2022-08-28T07:42:07.910Z,18.30
2022-08-28T07:44:50.299Z,18.30
2022-08-28T07:47:18.012Z,18.20
2022-08-28T07:49:45.283Z,18.10
2022-08-28T07:52:12.603Z,18.10
2022-08-28T07:54:40.498Z,18.00
2022-08-28T07:57:09.537Z,17.90
2022-08-28T07:59:37.722Z,17.80
2022-08-28T08:02:06.398Z,17.70
2022-08-28T08:04:33.628Z,17.60
2022-08-28T08:07:01.610Z,17.40
2022-08-28T08:09:28.870Z,17.40
2022-08-28T08:11:56.591Z,17.30
2022-08-28T08:14:24.912Z,17.20
2022-08-28T08:16:53.388Z,17.20
2022-08-28T08:19:20.744Z,17.20
2022-08-28T08:21:53.091Z,17.20
2022-08-28T08:24:21.035Z,17.20
2022-08-28T08:26:58.897Z,17.20
2022-08-28T08:29:29.279Z,17.10
2022-08-28T08:31:57.919Z,17.10
2022-08-28T08:34:25.799Z,17.20
2022-08-28T08:36:53.135Z,17.20
2022-08-28T08:39:20.623Z,17.20
2022-08-28T08:41:51.235Z,17.20
2022-08-28T08:44:34.412Z,17.20
2022-08-28T08:47:14.207Z,17.30
2022-08-28T08:49:54.743Z,17.30
2022-08-28T08:52:38.065Z,17.40
2022-08-28T08:55:15.105Z,17.40
2022-08-28T08:57:42.503Z,17.40
2022-08-28T09:00:19.356Z,17.50
2022-08-28T09:03:09.538Z,17.50
2022-08-28T09:05:41.572Z,17.50
2022-08-28T09:08:15.813Z,17.60
2022-08-28T09:10:47.718Z,17.60
2022-08-28T09:13:26.670Z,17.60
2022-08-28T09:15:53.977Z,17.60
2022-08-28T09:18:28.887Z,17.50
2022-08-28T09:20:57.351Z,17.50
2022-08-28T09:23:25.962Z,17.50
2022-08-28T09:26:05.893Z,17.40
2022-08-28T09:28:39.754Z,17.40
2022-08-28T09:31:09.080Z,17.50
2022-08-28T09:33:37.933Z,17.50
2022-08-28T09:36:33.362Z,17.50
2022-08-28T09:39:25.842Z,17.40
2022-08-28T09:42:33.078Z,17.40
2022-08-28T09:45:21.065Z,17.50
2022-08-28T09:47:52.151Z,17.50
2022-08-28T09:50:28.375Z,17.50
2022-08-28T09:52:58.027Z,17.50
2022-08-28T09:55:32.924Z,17.50
2022-08-28T09:58:00.884Z,17.50
2022-08-28T10:00:34.216Z,17.40
2022-08-28T10:03:16.360Z,17.50
2022-08-28T10:06:31.980Z,17.60
2022-08-28T10:09:21.207Z,17.50
2022-08-28T10:12:17.379Z,17.60
2022-08-28T10:14:48.835Z,17.60
2022-08-28T10:17:25.072Z,17.60
2022-08-28T10:20:04.584Z,17.60
2022-08-28T10:22:38.764Z,17.70
2022-08-28T10:25:09.351Z,17.70
2022-08-28T10:27:51.818Z,17.80
2022-08-28T10:30:24.075Z,17.80
2022-08-28T10:33:18.694Z,17.90
2022-08-28T10:36:00.909Z,17.90
2022-08-28T10:38:42.857Z,17.90
2022-08-28T10:41:29.485Z,18.00
2022-08-28T10:43:57.239Z,18.00
2022-08-28T10:46:28.016Z,18.00
2022-08-28T10:49:08.271Z,18.10
2022-08-28T10:51:45.855Z,18.20
2022-08-28T10:54:29.827Z,18.30
2022-08-28T10:57:08.437Z,18.20
2022-08-28T10:59:41.818Z,18.20
2022-08-28T11:02:10.433Z,18.50
2022-08-28T11:04:38.877Z,18.50
2022-08-28T11:07:07.864Z,18.60
2022-08-28T11:09:47.703Z,18.60
2022-08-28T11:12:19.579Z,18.80
2022-08-28T11:14:48.884Z,18.90
2022-08-28T11:17:22.590Z,19.10
2022-08-28T11:20:25.737Z,18.90
2022-08-28T11:22:59.634Z,19.00
2022-08-28T11:25:41.458Z,19.00
2022-08-28T11:28:24.617Z,18.90
2022-08-28T11:31:01.180Z,18.90
2022-08-28T11:33:34.599Z,18.90
2022-08-28T11:36:02.188Z,18.80
2022-08-28T11:38:41.794Z,18.80
2022-08-28T11:41:17.574Z,18.70
2022-08-28T11:43:45.660Z,18.70
2022-08-28T11:46:32.834Z,18.80
2022-08-28T11:49:05.167Z,18.80
2022-08-28T11:51:39.811Z,18.90
2022-08-28T11:54:23.581Z,18.90
2022-08-28T11:57:07.932Z,18.90
2022-08-28T12:00:05.700Z,19.00
2022-08-28T12:02:43.750Z,18.90
2022-08-28T12:05:17.062Z,19.00
2022-08-28T12:07:48.610Z,19.00
2022-08-28T12:10:27.670Z,19.10
2022-08-28T12:12:56.919Z,19.10
2022-08-28T12:15:27.237Z,19.20
2022-08-28T12:18:10.256Z,19.30
2022-08-28T12:20:53.608Z,19.30
2022-08-28T12:23:23.895Z,19.50
2022-08-28T12:26:03.536Z,19.60
2022-08-28T12:28:45.272Z,19.60
2022-08-28T12:31:21.523Z,19.60
2022-08-28T12:33:57.981Z,19.60
2022-08-28T12:36:26.765Z,19.70
2022-08-28T12:38:54.858Z,19.80
2022-08-28T12:41:22.419Z,19.80
2022-08-28T12:43:50.549Z,19.70
2022-08-28T12:46:29.561Z,19.60
2022-08-28T12:49:01.401Z,19.80
2022-08-28T12:51:33.727Z,19.80
2022-08-28T12:54:06.289Z,19.70
2022-08-28T12:56:36.136Z,19.60
2022-08-28T12:59:27.461Z,19.50
2022-08-28T13:02:00.338Z,19.50
2022-08-28T13:04:36.828Z,19.50
2022-08-28T13:07:12.468Z,19.60
2022-08-28T13:09:48.570Z,19.70
2022-08-28T13:12:23.996Z,19.50
2022-08-28T13:15:11.392Z,19.60
2022-08-28T13:17:49.930Z,19.60
2022-08-28T13:20:36.380Z,19.50
2022-08-28T13:23:03.879Z,19.50
2022-08-28T13:25:33.208Z,19.60
2022-08-28T13:28:14.452Z,19.60
2022-08-28T13:30:41.754Z,19.60
2022-08-28T13:33:23.548Z,19.70
2022-08-28T13:35:51.329Z,19.70
2022-08-28T13:38:20.048Z,19.60
2022-08-28T13:40:58.705Z,19.80
2022-08-28T13:43:27.830Z,19.80
2022-08-28T13:45:55.103Z,19.90
2022-08-28T13:48:24.576Z,20.00
2022-08-28T13:51:01.111Z,20.10
2022-08-28T13:53:30.865Z,20.30
2022-08-28T13:56:00.488Z,20.40
2022-08-28T13:58:28.182Z,20.50
2022-08-28T14:00:55.586Z,20.50
2022-08-28T14:03:38.796Z,20.60
2022-08-28T14:06:11.693Z,20.70
2022-08-28T14:08:40.076Z,20.70
2022-08-28T14:11:08.055Z,20.60
2022-08-28T14:13:40.285Z,20.50
2022-08-28T14:16:16.688Z,20.60
2022-08-28T14:18:44.093Z,20.80
2022-08-28T14:21:11.315Z,20.80
2022-08-28T14:23:38.543Z,20.90
2022-08-28T14:26:06.021Z,21.00
2022-08-28T14:28:33.243Z,20.90
2022-08-28T14:31:00.481Z,20.80
2022-08-28T14:33:27.852Z,20.80
2022-08-28T14:35:55.089Z,20.80
2022-08-28T14:38:22.304Z,20.70
2022-08-28T14:40:49.550Z,20.80
2022-08-28T14:43:16.787Z,20.90
2022-08-28T14:45:44.723Z,20.90
2022-08-28T14:48:12.085Z,20.90
2022-08-28T14:50:43.902Z,21.00
2022-08-28T14:53:11.569Z,21.10
2022-08-28T14:55:43.862Z,21.40
2022-08-28T14:58:11.208Z,21.50
2022-08-28T15:00:42.654Z,21.50
2022-08-28T15:03:10.084Z,21.50
2022-08-28T15:05:37.327Z,21.60
2022-08-28T15:08:13.338Z,21.90
2022-08-28T15:10:41.095Z,21.80
2022-08-28T15:13:10.191Z,21.80
2022-08-28T15:15:39.420Z,21.90
2022-08-28T15:18:10.386Z,22.00
2022-08-28T15:20:44.984Z,22.20
2022-08-28T15:23:13.283Z,22.40
2022-08-28T15:25:40.755Z,22.50
2022-08-28T15:28:08.264Z,22.70
2022-08-28T15:30:35.656Z,23.00
2022-08-28T15:33:03.117Z,22.90
2022-08-28T15:35:30.364Z,22.60
2022-08-28T15:37:57.706Z,22.40
2022-08-28T15:40:43.473Z,22.30
2022-08-28T15:43:10.783Z,22.10
2022-08-28T15:45:39.156Z,21.80
2022-08-28T15:48:07.040Z,21.70
2022-08-28T15:50:34.370Z,21.50
2022-08-28T15:53:02.119Z,21.40
2022-08-28T15:55:30.178Z,21.20
2022-08-28T15:57:57.420Z,21.20
2022-08-28T16:00:24.646Z,21.20
2022-08-28T16:02:51.872Z,21.10
2022-08-28T16:05:19.166Z,21.00
2022-08-28T16:07:46.549Z,21.10
2022-08-28T16:10:13.963Z,21.10
2022-08-28T16:12:41.421Z,21.10
2022-08-28T16:15:09.479Z,21.00
2022-08-28T16:17:37.056Z,21.20
2022-08-28T16:20:06.557Z,21.30
2022-08-28T16:22:40.736Z,21.40
2022-08-28T16:25:09.664Z,21.50
2022-08-28T16:27:36.907Z,21.50
2022-08-28T16:30:05.738Z,21.50
2022-08-28T16:32:33.179Z,21.60
2022-08-28T16:35:03.902Z,21.70
2022-08-28T16:37:38.315Z,22.00
2022-08-28T16:40:08.911Z,22.20
2022-08-28T16:42:36.262Z,22.30
2022-08-28T16:45:04.416Z,22.50
2022-08-28T16:47:32.224Z,22.60
2022-08-28T16:50:00.437Z,22.70
2022-08-28T16:52:27.683Z,22.60
2022-08-28T16:54:55.167Z,22.50
2022-08-28T16:57:22.612Z,22.60
2022-08-28T16:59:53.607Z,22.70
2022-08-28T17:02:26.339Z,23.00
2022-08-28T17:04:54.851Z,23.30
2022-08-28T17:07:22.084Z,23.40
2022-08-28T17:09:49.311Z,23.50
2022-08-28T17:12:16.739Z,23.30
2022-08-28T17:14:44.820Z,22.80
2022-08-28T17:17:12.085Z,22.60
2022-08-28T17:19:39.652Z,22.20
2022-08-28T17:22:27.482Z,22.10
2022-08-28T17:24:55.055Z,21.90
2022-08-28T17:27:23.399Z,21.60
2022-08-28T17:29:51.022Z,21.40
2022-08-28T17:32:18.496Z,21.20
2022-08-28T17:34:45.943Z,21.00
2022-08-28T17:37:13.235Z,20.80
2022-08-28T17:39:40.479Z,20.60
2022-08-28T17:42:07.762Z,20.60
2022-08-28T17:44:35.365Z,20.50
2022-08-28T17:47:02.698Z,20.50
2022-08-28T17:49:30.103Z,20.40
2022-08-28T17:51:57.346Z,20.30
2022-08-28T17:54:24.710Z,20.30
2022-08-28T17:56:52.488Z,20.20
2022-08-28T17:59:19.871Z,20.10
2022-08-28T18:01:47.238Z,20.00
2022-08-28T18:04:17.879Z,19.90
2022-08-28T18:06:47.522Z,19.90
2022-08-28T18:09:14.853Z,19.90
2022-08-28T18:11:42.353Z,19.80
2022-08-28T18:14:09.602Z,19.70
2022-08-28T18:16:37.132Z,19.70
2022-08-28T18:19:05.678Z,19.60
2022-08-28T18:21:33.087Z,19.60
2022-08-28T18:24:00.357Z,19.50
2022-08-28T18:26:27.583Z,19.40
2022-08-28T18:28:55.136Z,19.30
2022-08-28T18:31:23.118Z,19.30
2022-08-28T18:33:50.525Z,19.20
2022-08-28T18:36:17.794Z,19.10
2022-08-28T18:38:45.128Z,19.00
2022-08-28T18:41:13.084Z,19.00
2022-08-28T18:43:40.340Z,19.00
2022-08-28T18:46:08.885Z,18.90
2022-08-28T18:48:36.592Z,18.90
2022-08-28T18:51:06.707Z,18.80
2022-08-28T18:53:33.975Z,18.70
2022-08-28T18:56:02.664Z,18.70
2022-08-28T18:58:32.274Z,18.70
2022-08-28T19:01:02.109Z,18.60
2022-08-28T19:03:29.723Z,18.60
2022-08-28T19:05:57.190Z,18.60
2022-08-28T19:08:25.245Z,18.70
2022-08-28T19:10:53.055Z,18.70
2022-08-28T19:13:20.574Z,18.60
2022-08-28T19:15:50.535Z,18.50
2022-08-28T19:18:17.935Z,18.40
2022-08-28T19:20:45.571Z,18.50
2022-08-28T19:23:16.887Z,18.40
2022-08-28T19:25:44.938Z,18.30
2022-08-28T19:28:12.258Z,18.30
2022-08-28T19:30:39.566Z,18.30
2022-08-28T19:33:06.793Z,18.30
2022-08-28T19:35:34.026Z,18.20
2022-08-28T19:38:01.420Z,18.20
2022-08-28T19:40:29.022Z,18.20
2022-08-28T19:42:56.414Z,18.10
2022-08-28T19:45:23.675Z,18.10
2022-08-28T19:47:52.154Z,18.20
2022-08-28T19:50:19.654Z,18.10
2022-08-28T19:52:46.987Z,18.10
2022-08-28T19:55:20.622Z,18.10
2022-08-28T19:57:48.520Z,18.10
2022-08-28T20:00:18.145Z,18.00
2022-08-28T20:02:45.661Z,18.00
2022-08-28T20:05:12.992Z,17.90
2022-08-28T20:07:40.404Z,17.90
2022-08-28T20:10:08.035Z,17.80
2022-08-28T20:12:35.682Z,17.80
2022-08-28T20:15:03.863Z,17.80
2022-08-28T20:17:31.415Z,17.80
2022-08-28T20:20:02.398Z,17.70
2022-08-28T20:22:31.819Z,17.60
2022-08-28T20:24:59.632Z,17.70
2022-08-28T20:27:27.505Z,17.70
2022-08-28T20:29:54.708Z,17.70
2022-08-28T20:32:22.008Z,17.80
2022-08-28T20:34:49.241Z,17.80
2022-08-28T20:37:16.795Z,17.80
2022-08-28T20:39:44.063Z,17.60
2022-08-28T20:42:11.766Z,17.60
2022-08-28T20:44:39.055Z,17.50
2022-08-28T20:47:06.525Z,17.40
2022-08-28T20:49:39.251Z,17.30
2022-08-28T20:52:06.950Z,17.30
2022-08-28T20:54:39.339Z,17.20
2022-08-28T20:57:09.495Z,17.20
2022-08-28T20:59:40.004Z,17.20
2022-08-28T21:02:12.732Z,17.10
2022-08-28T21:04:40.440Z,17.10
2022-08-28T21:07:07.863Z,17.20
2022-08-28T21:10:04.491Z,17.20
2022-08-28T21:12:22.555Z,17.20
2022-08-28T21:14:52.750Z,17.20
2022-08-28T21:17:29.170Z,17.20
2022-08-28T21:20:02.927Z,17.20
2022-08-28T21:22:31.697Z,17.10
2022-08-28T21:24:59.033Z,17.00
2022-08-28T21:27:26.762Z,16.90
2022-08-28T21:29:58.210Z,16.90
2022-08-28T21:32:26.219Z,16.90
2022-08-28T21:34:54.443Z,16.80
2022-08-28T21:37:22.072Z,16.80
2022-08-28T21:39:49.382Z,16.80
2022-08-28T21:42:16.667Z,16.90
2022-08-28T21:44:46.112Z,16.90
2022-08-28T21:47:22.859Z,16.90
2022-08-28T21:49:54.534Z,17.00
2022-08-28T21:52:23.430Z,16.90
2022-08-28T21:54:51.603Z,16.80
2022-08-28T21:57:18.898Z,16.80
2022-08-28T21:59:46.122Z,16.80
2022-08-28T22:02:13.401Z,16.70
2022-08-28T22:04:40.682Z,16.60
2022-08-28T22:07:09.786Z,16.60
2022-08-28T22:09:37.008Z,16.60
2022-08-28T22:12:04.360Z,16.60
2022-08-28T22:14:31.573Z,16.70
2022-08-28T22:16:58.844Z,16.60
2022-08-28T22:19:26.117Z,16.50
2022-08-28T22:22:11.770Z,16.50
2022-08-28T22:24:38.996Z,16.60
2022-08-28T22:27:06.339Z,16.50
2022-08-28T22:29:36.516Z,16.40
2022-08-28T22:32:07.578Z,16.40
2022-08-28T22:34:40.423Z,16.40
2022-08-28T22:37:08.261Z,16.40
2022-08-28T22:39:35.482Z,16.50
2022-08-28T22:42:02.716Z,16.40
2022-08-28T22:44:30.027Z,16.40
2022-08-28T22:46:57.303Z,16.40
2022-08-28T22:49:24.588Z,16.40
2022-08-28T22:51:51.824Z,16.30
2022-08-28T22:54:19.114Z,16.30
2022-08-28T22:56:46.365Z,16.30
2022-08-28T22:59:13.670Z,16.30
2022-08-28T23:01:42.428Z,16.40
2022-08-28T23:04:10.479Z,16.30
2022-08-28T23:06:40.885Z,16.30
2022-08-28T23:09:08.252Z,16.40
2022-08-28T23:11:36.330Z,16.40
2022-08-28T23:14:04.719Z,16.40
2022-08-28T23:16:32.904Z,16.30
2022-08-28T23:19:09.793Z,16.30
2022-08-28T23:21:43.948Z,16.20
2022-08-28T23:24:15.955Z,16.20
2022-08-28T23:26:43.615Z,16.20
2022-08-28T23:29:11.052Z,16.20
2022-08-28T23:31:38.450Z,16.20
2022-08-28T23:34:06.075Z,16.20
2022-08-28T23:36:35.400Z,16.20
2022-08-28T23:39:03.914Z,16.10
2022-08-28T23:41:32.077Z,16.20
2022-08-28T23:43:59.485Z,16.10
2022-08-28T23:46:26.755Z,16.10
2022-08-28T23:48:54.008Z,16.10
2022-08-28T23:51:21.973Z,16.10
2022-08-28T23:53:49.287Z,16.00
2022-08-28T23:56:17.279Z,16.00
2022-08-28T23:58:45.534Z,15.80
